Frontera — V2GM3 — position and weather

sailwx.info

Track history (hours):
 
Tides and Currents Weather Stations Pressure Air Temp Water Temp Dewpoint Dewpoint Depression Visibility Wind Speed Wind Dir Waves Ship Positions

Frontera

Last reported at 2018-Feb-22 13:11 UTC. Time now 2018-Feb-24 19:51 UTC.
Position N 37°44' W 009°48'.

Length 106 m; draft 6.2 m.

Type: Cargo ship. MMSI: 305995000.

Date/timePositionNaut miles runAvg speedWind from/ knotsBaromVisibWave heightAir tempDewpointWater temp
2018-Feb-22 13:11N 37°44' W 009°48'210.0
2018-Feb-22 13:00N 37°45' W 009°49'5 9.8
2018-Feb-22 12:30N 37°50' W 009°50'510.0
2018-Feb-22 11:59N 37°55' W 009°51'510.2
2018-Feb-22 11:30N 38°00' W 009°52'58 9.8
2018-Feb-22 05:34N 38°57' W 010°06'1 9.4
2018-Feb-22 05:29N 38°58' W 010°06'5 9.9
2018-Feb-22 05:00N 39°03' W 010°06'2810.0
2018-Feb-22 02:11N 39°31' W 010°06'610.1
2018-Feb-22 01:36N 39°37' W 010°06'  
2018-Feb-18 18:17N 50°12' W 001°52'6312.3
2018-Feb-18 13:11N 50°29' W 000°17'9 9.8
2018-Feb-18 12:14N 50°31' W 000°03'5 8.8
2018-Feb-18 11:40N 50°33' E 000°05'26 8.4
2018-Feb-18 08:35N 50°41' E 000°43'210.2
2018-Feb-18 08:23N 50°42' E 000°46'3711.1
2018-Feb-18 05:03N 51°04' E 001°33'0 8.8
2018-Feb-18 05:00N 51°05' E 001°33'5 9.4
2018-Feb-18 04:30N 51°08' E 001°39'4 9.0
2018-Feb-18 04:00N 51°11' E 001°43'4 8.5
2018-Feb-18 03:31N 51°14' E 001°48'4 8.1
2018-Feb-18 03:00N 51°18' E 001°52'5 8.2
2018-Feb-18 02:26N 51°22' E 001°55'4 8.5
2018-Feb-18 02:00N 51°25' E 001°58'4 7.3
2018-Feb-18 01:30N 51°24' E 002°04'5 9.6
2018-Feb-18 01:01N 51°22' E 002°11'5 9.1
2018-Feb-18 00:30N 51°21' E 002°18'5 9.4
2018-Feb-17 23:59N 51°22' E 002°26'510.1
2018-Feb-17 23:29N 51°23' E 002°34'510.4
2018-Feb-17 22:57N 51°22' E 002°42'510.5
2018-Feb-17 22:30N 51°22' E 002°50'612.7
2018-Feb-17 22:00N 51°24' E 002°60'611.7
2018-Feb-17 21:31N 51°24' E 003°09'612.5
2018-Feb-17 21:01N 51°24' E 003°19'712.8
2018-Feb-17 20:26N 51°25' E 003°31'510.8
2018-Feb-17 20:00N 51°25' E 003°38'713.7
2018-Feb-17 19:30N 51°21' E 003°47'2 4.0
2018-Feb-17 19:00N 51°20' E 003°49'0 0.5
2018-Feb-17 18:30N 51°19' E 003°49'3 6.3
2018-Feb-17 18:00N 51°16' E 003°50'3 6.9
2018-Feb-17 17:30N 51°13' E 003°48'3 4.5
2018-Feb-17 16:55N 51°11' E 003°48'0 0.0
2018-Feb-17 16:28N 51°11' E 003°48'0 0.0
2018-Feb-17 15:58N 51°11' E 003°48'0 0.0
2018-Feb-17 15:22N 51°11' E 003°48'0 0.0
2018-Feb-17 14:52N 51°11' E 003°48'0 0.0
2018-Feb-17 14:25N 51°11' E 003°48'0 0.0
2018-Feb-17 13:58N 51°11' E 003°48'0 0.0
2018-Feb-17 13:25N 51°11' E 003°48'0 0.0
2018-Feb-17 12:58N 51°11' E 003°48'0 0.0
2018-Feb-17 12:28N 51°11' E 003°48'0 0.0
2018-Feb-17 11:58N 51°11' E 003°48'0 0.0
2018-Feb-17 11:25N 51°11' E 003°48'0 0.0
2018-Feb-17 10:58N 51°11' E 003°48'0 0.0
2018-Feb-17 10:28N 51°11' E 003°48'0 0.0
2018-Feb-17 09:58N 51°11' E 003°48'0 0.0
2018-Feb-17 09:28N 51°11' E 003°48'0 0.0
2018-Feb-17 08:55N 51°11' E 003°48'0 0.0
2018-Feb-17 08:28N 51°11' E 003°48'0 0.0
2018-Feb-17 07:55N 51°11' E 003°48'0 0.0
2018-Feb-17 07:25N 51°11' E 003°48'0 0.0
2018-Feb-17 06:58N 51°11' E 003°48'0 0.0
2018-Feb-17 06:28N 51°11' E 003°48'0 0.0
2018-Feb-17 05:58N 51°11' E 003°48'0 0.0
2018-Feb-17 05:28N 51°11' E 003°48'0 0.0
2018-Feb-17 04:55N 51°11' E 003°48'0 0.0
2018-Feb-17 04:28N 51°11' E 003°48'0 0.0
2018-Feb-17 03:55N 51°11' E 003°48'0 0.0
2018-Feb-17 03:22N 51°11' E 003°48'0 0.0
2018-Feb-17 02:58N 51°11' E 003°48'0 0.0
2018-Feb-17 02:25N 51°11' E 003°48'0 0.0
2018-Feb-17 01:55N 51°11' E 003°48'0 0.0
2018-Feb-17 01:25N 51°11' E 003°48'0 0.0
2018-Feb-17 00:58N 51°11' E 003°48'0 0.0
2018-Feb-17 00:25N 51°11' E 003°48'0 0.0
2018-Feb-16 23:58N 51°11' E 003°48'0 0.0
2018-Feb-16 23:28N 51°11' E 003°48'0 0.0
2018-Feb-16 22:55N 51°11' E 003°48'0 0.0
2018-Feb-16 22:28N 51°11' E 003°48'0 0.0
2018-Feb-16 21:58N 51°11' E 003°48'0 0.0
2018-Feb-16 21:28N 51°11' E 003°48'0 0.0
2018-Feb-16 20:58N 51°11' E 003°48'0 0.0
2018-Feb-16 20:28N 51°11' E 003°48'0 0.0
2018-Feb-16 19:58N 51°11' E 003°48'0 0.0
2018-Feb-16 19:28N 51°11' E 003°48'0 0.0
2018-Feb-16 18:58N 51°11' E 003°48'0 0.0
2018-Feb-16 18:28N 51°11' E 003°48'0 0.0
2018-Feb-16 17:46N 51°11' E 003°48'0 0.0
2018-Feb-16 17:25N 51°11' E 003°48'0 0.0
2018-Feb-16 16:55N 51°11' E 003°48'0 0.0
2018-Feb-16 16:22N 51°11' E 003°48'0 0.0
2018-Feb-16 15:58N 51°11' E 003°48'0 0.0
2018-Feb-16 15:28N 51°11' E 003°48'0 0.0
2018-Feb-16 14:52N 51°11' E 003°48'0 0.0
2018-Feb-16 14:28N 51°11' E 003°48'0 0.0
2018-Feb-16 13:52N 51°11' E 003°48'0 0.0
2018-Feb-16 13:16N 51°11' E 003°48'0 0.0
2018-Feb-16 12:58N 51°11' E 003°48'0 0.0
2018-Feb-16 12:28N 51°11' E 003°48'0 0.0
2018-Feb-16 11:59N 51°11' E 003°48'0 0.0
2018-Feb-16 11:26N 51°11' E 003°48'0 0.0
2018-Feb-16 10:59N 51°11' E 003°48'0 0.0
2018-Feb-16 10:29N 51°11' E 003°48'0 0.0
2018-Feb-16 09:59N 51°11' E 003°48'0 0.0
2018-Feb-16 09:26N 51°11' E 003°48'0 0.0
2018-Feb-16 08:59N 51°11' E 003°48'0 0.0
2018-Feb-16 08:29N 51°11' E 003°48'0 0.0
2018-Feb-16 07:59N 51°11' E 003°48'0 0.0
2018-Feb-16 07:23N 51°11' E 003°48'0 0.0
2018-Feb-16 06:47N 51°11' E 003°48'0 0.0
2018-Feb-16 06:29N 51°11' E 003°48'0 0.0
2018-Feb-16 05:59N 51°11' E 003°48'0 0.0
2018-Feb-16 05:23N 51°11' E 003°48'0 0.0
2018-Feb-16 04:53N 51°11' E 003°48'0 0.0
2018-Feb-16 04:29N 51°11' E 003°48'0 0.0
2018-Feb-16 03:53N 51°11' E 003°48'0 0.0
2018-Feb-16 03:26N 51°11' E 003°48'0 0.0
2018-Feb-16 02:59N 51°11' E 003°48'0 0.0
2018-Feb-16 02:26N 51°11' E 003°48'0 0.0
2018-Feb-16 01:59N 51°11' E 003°48'0 0.0
2018-Feb-16 01:29N 51°11' E 003°48'0 0.0
2018-Feb-16 00:59N 51°11' E 003°48'0 0.1
2018-Feb-16 00:30N 51°11' E 003°48'2 3.6
2018-Feb-16 00:00N 51°12' E 003°48'3 5.4
2018-Feb-15 23:30N 51°15' E 003°49'3 6.4
2018-Feb-15 23:00N 51°18' E 003°50'2 4.2
2018-Feb-15 22:30N 51°20' E 003°49'0 0.4
2018-Feb-15 22:00N 51°20' E 003°49'0 0.7
2018-Feb-15 21:30N 51°21' E 003°49'3 6.8
2018-Feb-15 21:01N 51°22' E 003°44'9 8.7
2018-Feb-15 19:55N 51°25' E 003°29'3 6.6
2018-Feb-15 19:30N 51°25' E 003°25'3 6.2
2018-Feb-15 19:01N 51°24' E 003°20'4 7.4
2018-Feb-15 18:31N 51°25' E 003°14'5 9.6
2018-Feb-15 17:59N 51°24' E 003°06'5 9.5
2018-Feb-15 17:30N 51°23' E 002°59'5 9.3
2018-Feb-15 17:00N 51°22' E 002°52'6 9.3
2018-Feb-15 16:18N 51°22' E 002°42'3 8.0
2018-Feb-15 15:59N 51°22' E 002°37'1 1.9
2018-Feb-15 15:30N 51°22' E 002°36'2 3.9
2018-Feb-15 15:00N 51°22' E 002°33'2 4.2
2018-Feb-15 14:29N 51°21' E 002°30'2 4.9
2018-Feb-15 14:00N 51°21' E 002°26'3 6.6
2018-Feb-15 13:30N 51°19' E 002°21'612.0
2018-Feb-15 13:00N 51°16' E 002°14'612.2
2018-Feb-15 12:30N 51°12' E 002°06'612.5
2018-Feb-15 12:00N 51°10' E 001°56'612.9
2018-Feb-15 11:30N 51°06' E 001°48'714.0
2018-Feb-15 11:01N 51°01' E 001°40'814.3
2018-Feb-15 10:26N 50°55' E 001°31'8410.5
2018-Feb-15 02:26N 49°59' W 000°06'510.8
2018-Feb-15 02:00N 49°54' W 000°07'611.0
2018-Feb-15 01:30N 49°49' W 000°08'611.3
2018-Feb-15 01:00N 49°43' W 000°10'611.7
2018-Feb-15 00:30N 49°37' W 000°11'611.6
2018-Feb-15 00:00N 49°31' W 000°12'511.1
2018-Feb-14 23:30N 49°29' W 000°04'510.6
2018-Feb-14 23:00N 49°27' E 000°03'612.6
2018-Feb-14 22:30N 49°26' E 000°13'612.6
2018-Feb-14 22:00N 49°27' E 000°22'611.2
2018-Feb-14 21:30N 49°29' E 000°30'5 9.7
2018-Feb-14 21:00N 49°26' E 000°35'4 8.7
2018-Feb-14 20:30N 49°29' E 000°40'4 7.4
2018-Feb-14 20:00N 49°31' E 000°44'510.5
2018-Feb-14 19:30N 49°27' E 000°49'3 5.4
2018-Feb-14 19:01N 49°25' E 000°52'4 7.6
2018-Feb-14 18:30N 49°28' E 000°56'713.6
2018-Feb-14 18:01N 49°21' E 000°56'4 7.2
2018-Feb-14 17:31N 49°23' E 001°01'0 0.3
2018-Feb-14 16:58N 49°23' E 001°01'0 0.0
2018-Feb-14 16:31N 49°23' E 001°01'0 0.0
2018-Feb-14 15:58N 49°23' E 001°01'0 0.0
2018-Feb-14 15:28N 49°23' E 001°01'0 0.0
2018-Feb-14 15:01N 49°23' E 001°01'0 0.0
2018-Feb-14 14:28N 49°23' E 001°01'0 0.0
2018-Feb-14 13:58N 49°23' E 001°01'0 0.0
2018-Feb-14 13:30N 49°23' E 001°01'0 0.0
2018-Feb-14 12:58N 49°23' E 001°01'0 0.0
2018-Feb-14 12:27N 49°23' E 001°01'0 0.0
2018-Feb-14 12:00N 49°23' E 001°01'0 0.0
2018-Feb-14 11:28N 49°23' E 001°01'0 0.0
2018-Feb-14 11:01N 49°23' E 001°01'0 0.0
2018-Feb-14 10:31N 49°23' E 001°01'0 0.0
2018-Feb-14 09:57N 49°23' E 001°01'0 0.0
2018-Feb-14 09:27N 49°23' E 001°01'0 0.0
2018-Feb-14 08:58N 49°23' E 001°01'0 0.0
2018-Feb-14 08:31N 49°23' E 001°01'0 0.0
2018-Feb-14 08:01N 49°23' E 001°01'0 0.0
2018-Feb-14 07:31N 49°23' E 001°01'0 0.0
2018-Feb-14 06:58N 49°23' E 001°01'0 0.0
2018-Feb-14 06:27N 49°23' E 001°01'0 0.0
2018-Feb-14 05:58N 49°23' E 001°01'0 0.0
2018-Feb-14 05:28N 49°23' E 001°01'0 0.0
2018-Feb-14 04:58N 49°23' E 001°01'0 0.0
2018-Feb-14 04:31N 49°23' E 001°01'0 0.0
2018-Feb-14 04:00N 49°23' E 001°01'0 0.0
2018-Feb-14 03:31N 49°23' E 001°01'0 0.0
2018-Feb-14 03:00N 49°23' E 001°01'0 0.0
2018-Feb-14 02:30N 49°23' E 001°01'0 0.0
2018-Feb-14 02:00N 49°23' E 001°01'0 0.0
2018-Feb-14 01:31N 49°23' E 001°01'0 0.0
2018-Feb-14 01:00N 49°23' E 001°01'0 0.0
2018-Feb-14 00:30N 49°23' E 001°01'0 0.0
2018-Feb-14 00:00N 49°23' E 001°01'0 0.0
2018-Feb-13 23:31N 49°23' E 001°01'0 0.0
2018-Feb-13 23:00N 49°23' E 001°01'0 0.0
2018-Feb-13 22:30N 49°23' E 001°01'0 0.0
2018-Feb-13 22:00N 49°23' E 001°01'0 0.0
2018-Feb-13 21:30N 49°23' E 001°01'0 0.0
2018-Feb-13 21:01N 49°23' E 001°01'0 0.0
2018-Feb-13 20:30N 49°23' E 001°01'0 0.0
2018-Feb-13 20:00N 49°23' E 001°01'0 0.0
2018-Feb-13 19:30N 49°23' E 001°01'0 0.0
2018-Feb-13 19:01N 49°23' E 001°01'0 0.0
2018-Feb-13 18:30N 49°23' E 001°01'0 0.0
2018-Feb-13 18:00N 49°23' E 001°01'0 0.0
2018-Feb-13 17:30N 49°23' E 001°01'0 0.0
2018-Feb-13 17:01N 49°23' E 001°01'0 0.0
2018-Feb-13 16:30N 49°23' E 001°01'0 0.0
2018-Feb-13 16:00N 49°23' E 001°01'0 0.0
2018-Feb-13 15:30N 49°23' E 001°01'0 0.0
2018-Feb-13 15:00N 49°23' E 001°01'0 0.0
2018-Feb-13 14:30N 49°23' E 001°01'0 0.0
2018-Feb-13 14:00N 49°23' E 001°01'0 0.0
2018-Feb-13 13:30N 49°23' E 001°01'0 0.0
2018-Feb-13 13:00N 49°23' E 001°01'0 0.0
2018-Feb-13 12:31N 49°23' E 001°01'0 0.0
2018-Feb-13 12:01N 49°23' E 001°01'0 0.9
2018-Feb-13 11:31N 49°23' E 001°01'2 3.5
2018-Feb-13 11:00N 49°21' E 000°59'3 6.7
2018-Feb-13 10:30N 49°24' E 000°55'510.4
2018-Feb-13 10:01N 49°29' E 000°55'4 7.8
2018-Feb-13 09:30N 49°26' E 000°52'2 4.6
2018-Feb-13 09:00N 49°26' E 000°48'5 9.7
2018-Feb-13 08:30N 49°30' E 000°46'4 8.1
2018-Feb-13 08:01N 49°30' E 000°40'510.3
2018-Feb-13 07:31N 49°26' E 000°35'5 9.8
2018-Feb-13 07:01N 49°28' E 000°28'713.2
2018-Feb-13 06:31N 49°26' E 000°19'612.8
2018-Feb-13 06:00N 49°26' E 000°09'611.5
2018-Feb-13 05:30N 49°28' E 000°00'5 9.6
2018-Feb-13 05:00N 49°30' W 000°07'4 8.9
2018-Feb-13 04:30N 49°33' W 000°11'5 9.3
2018-Feb-13 04:01N 49°38' W 000°11'5 9.3
2018-Feb-13 03:31N 49°42' W 000°10'5 9.1
2018-Feb-13 03:01N 49°47' W 000°10'4 8.8
2018-Feb-13 02:30N 49°51' W 000°09'4 7.8
2018-Feb-13 02:00N 49°55' W 000°11'4 8.6
2018-Feb-13 01:30N 49°59' W 000°11'4 8.4
2018-Feb-13 01:00N 50°04' W 000°11'16 8.3
2018-Feb-12 23:04N 50°19' W 000°06'1 8.5
2018-Feb-12 22:59N 50°20' W 000°06'4 8.5
2018-Feb-12 22:30N 50°24' W 000°06'4 7.7
2018-Feb-12 21:58N 50°27' W 000°02'59 8.7
2018-Feb-12 15:11N 50°56' E 001°20'310.4
2018-Feb-12 14:53N 50°58' E 001°23'410.3
2018-Feb-12 14:29N 51°01' E 001°27'4 8.9
2018-Feb-12 13:59N 51°04' E 001°32'5 9.3
2018-Feb-12 13:30N 51°07' E 001°37'  
Track history (hours):
 
Tides and Currents Weather Stations Pressure Air Temp Water Temp Dewpoint Dewpoint Depression Visibility Wind Speed Wind Dir Waves Ship Positions

Frontera

Last reported at 2018-Feb-22 13:11 UTC. Time now 2018-Feb-24 19:51 UTC.
Position N 37°44' W 009°48'.

Length 106 m; draft 6.2 m.

Type: Cargo ship. MMSI: 305995000.

Date/timePositionNaut miles runAvg speedWind from/ knotsBaromVisibWave heightAir tempDewpointWater temp
2018-Feb-22 13:11N 37°44' W 009°48'210.0
2018-Feb-22 13:00N 37°45' W 009°49'5 9.8
2018-Feb-22 12:30N 37°50' W 009°50'510.0
2018-Feb-22 11:59N 37°55' W 009°51'510.2
2018-Feb-22 11:30N 38°00' W 009°52'58 9.8
2018-Feb-22 05:34N 38°57' W 010°06'1 9.4
2018-Feb-22 05:29N 38°58' W 010°06'5 9.9
2018-Feb-22 05:00N 39°03' W 010°06'2810.0
2018-Feb-22 02:11N 39°31' W 010°06'610.1
2018-Feb-22 01:36N 39°37' W 010°06'  
2018-Feb-18 18:17N 50°12' W 001°52'6312.3
2018-Feb-18 13:11N 50°29' W 000°17'9 9.8
2018-Feb-18 12:14N 50°31' W 000°03'5 8.8
2018-Feb-18 11:40N 50°33' E 000°05'26 8.4
2018-Feb-18 08:35N 50°41' E 000°43'210.2
2018-Feb-18 08:23N 50°42' E 000°46'3711.1
2018-Feb-18 05:03N 51°04' E 001°33'0 8.8
2018-Feb-18 05:00N 51°05' E 001°33'5 9.4
2018-Feb-18 04:30N 51°08' E 001°39'4 9.0
2018-Feb-18 04:00N 51°11' E 001°43'4 8.5
2018-Feb-18 03:31N 51°14' E 001°48'4 8.1
2018-Feb-18 03:00N 51°18' E 001°52'5 8.2
2018-Feb-18 02:26N 51°22' E 001°55'4 8.5
2018-Feb-18 02:00N 51°25' E 001°58'4 7.3
2018-Feb-18 01:30N 51°24' E 002°04'5 9.6
2018-Feb-18 01:01N 51°22' E 002°11'5 9.1
2018-Feb-18 00:30N 51°21' E 002°18'5 9.4
2018-Feb-17 23:59N 51°22' E 002°26'510.1
2018-Feb-17 23:29N 51°23' E 002°34'510.4
2018-Feb-17 22:57N 51°22' E 002°42'510.5
2018-Feb-17 22:30N 51°22' E 002°50'612.7
2018-Feb-17 22:00N 51°24' E 002°60'611.7
2018-Feb-17 21:31N 51°24' E 003°09'612.5
2018-Feb-17 21:01N 51°24' E 003°19'712.8
2018-Feb-17 20:26N 51°25' E 003°31'510.8
2018-Feb-17 20:00N 51°25' E 003°38'713.7
2018-Feb-17 19:30N 51°21' E 003°47'2 4.0
2018-Feb-17 19:00N 51°20' E 003°49'0 0.5
2018-Feb-17 18:30N 51°19' E 003°49'3 6.3
2018-Feb-17 18:00N 51°16' E 003°50'3 6.9
2018-Feb-17 17:30N 51°13' E 003°48'3 4.5
2018-Feb-17 16:55N 51°11' E 003°48'0 0.0
2018-Feb-17 16:28N 51°11' E 003°48'0 0.0
2018-Feb-17 15:58N 51°11' E 003°48'0 0.0
2018-Feb-17 15:22N 51°11' E 003°48'0 0.0
2018-Feb-17 14:52N 51°11' E 003°48'0 0.0
2018-Feb-17 14:25N 51°11' E 003°48'0 0.0
2018-Feb-17 13:58N 51°11' E 003°48'0 0.0
2018-Feb-17 13:25N 51°11' E 003°48'0 0.0
2018-Feb-17 12:58N 51°11' E 003°48'0 0.0
2018-Feb-17 12:28N 51°11' E 003°48'0 0.0
2018-Feb-17 11:58N 51°11' E 003°48'0 0.0
2018-Feb-17 11:25N 51°11' E 003°48'0 0.0
2018-Feb-17 10:58N 51°11' E 003°48'0 0.0
2018-Feb-17 10:28N 51°11' E 003°48'0 0.0
2018-Feb-17 09:58N 51°11' E 003°48'0 0.0
2018-Feb-17 09:28N 51°11' E 003°48'0 0.0
2018-Feb-17 08:55N 51°11' E 003°48'0 0.0
2018-Feb-17 08:28N 51°11' E 003°48'0 0.0
2018-Feb-17 07:55N 51°11' E 003°48'0 0.0
2018-Feb-17 07:25N 51°11' E 003°48'0 0.0
2018-Feb-17 06:58N 51°11' E 003°48'0 0.0
2018-Feb-17 06:28N 51°11' E 003°48'0 0.0
2018-Feb-17 05:58N 51°11' E 003°48'0 0.0
2018-Feb-17 05:28N 51°11' E 003°48'0 0.0
2018-Feb-17 04:55N 51°11' E 003°48'0 0.0
2018-Feb-17 04:28N 51°11' E 003°48'0 0.0
2018-Feb-17 03:55N 51°11' E 003°48'0 0.0
2018-Feb-17 03:22N 51°11' E 003°48'0 0.0
2018-Feb-17 02:58N 51°11' E 003°48'0 0.0
2018-Feb-17 02:25N 51°11' E 003°48'0 0.0
2018-Feb-17 01:55N 51°11' E 003°48'0 0.0
2018-Feb-17 01:25N 51°11' E 003°48'0 0.0
2018-Feb-17 00:58N 51°11' E 003°48'0 0.0
2018-Feb-17 00:25N 51°11' E 003°48'0 0.0
2018-Feb-16 23:58N 51°11' E 003°48'0 0.0
2018-Feb-16 23:28N 51°11' E 003°48'0 0.0
2018-Feb-16 22:55N 51°11' E 003°48'0 0.0
2018-Feb-16 22:28N 51°11' E 003°48'0 0.0
2018-Feb-16 21:58N 51°11' E 003°48'0 0.0
2018-Feb-16 21:28N 51°11' E 003°48'0 0.0
2018-Feb-16 20:58N 51°11' E 003°48'0 0.0
2018-Feb-16 20:28N 51°11' E 003°48'0 0.0
2018-Feb-16 19:58N 51°11' E 003°48'0 0.0
2018-Feb-16 19:28N 51°11' E 003°48'0 0.0
2018-Feb-16 18:58N 51°11' E 003°48'0 0.0
2018-Feb-16 18:28N 51°11' E 003°48'0 0.0
2018-Feb-16 17:46N 51°11' E 003°48'0 0.0
2018-Feb-16 17:25N 51°11' E 003°48'0 0.0
2018-Feb-16 16:55N 51°11' E 003°48'0 0.0
2018-Feb-16 16:22N 51°11' E 003°48'0 0.0
2018-Feb-16 15:58N 51°11' E 003°48'0 0.0
2018-Feb-16 15:28N 51°11' E 003°48'0 0.0
2018-Feb-16 14:52N 51°11' E 003°48'0 0.0
2018-Feb-16 14:28N 51°11' E 003°48'0 0.0
2018-Feb-16 13:52N 51°11' E 003°48'0 0.0
2018-Feb-16 13:16N 51°11' E 003°48'0 0.0
2018-Feb-16 12:58N 51°11' E 003°48'0 0.0
2018-Feb-16 12:28N 51°11' E 003°48'0 0.0
2018-Feb-16 11:59N 51°11' E 003°48'0 0.0
2018-Feb-16 11:26N 51°11' E 003°48'0 0.0
2018-Feb-16 10:59N 51°11' E 003°48'0 0.0
2018-Feb-16 10:29N 51°11' E 003°48'0 0.0
2018-Feb-16 09:59N 51°11' E 003°48'0 0.0
2018-Feb-16 09:26N 51°11' E 003°48'0 0.0
2018-Feb-16 08:59N 51°11' E 003°48'0 0.0
2018-Feb-16 08:29N 51°11' E 003°48'0 0.0
2018-Feb-16 07:59N 51°11' E 003°48'0 0.0
2018-Feb-16 07:23N 51°11' E 003°48'0 0.0
2018-Feb-16 06:47N 51°11' E 003°48'0 0.0
2018-Feb-16 06:29N 51°11' E 003°48'0 0.0
2018-Feb-16 05:59N 51°11' E 003°48'0 0.0
2018-Feb-16 05:23N 51°11' E 003°48'0 0.0
2018-Feb-16 04:53N 51°11' E 003°48'0 0.0
2018-Feb-16 04:29N 51°11' E 003°48'0 0.0
2018-Feb-16 03:53N 51°11' E 003°48'0 0.0
2018-Feb-16 03:26N 51°11' E 003°48'0 0.0
2018-Feb-16 02:59N 51°11' E 003°48'0 0.0
2018-Feb-16 02:26N 51°11' E 003°48'0 0.0
2018-Feb-16 01:59N 51°11' E 003°48'0 0.0
2018-Feb-16 01:29N 51°11' E 003°48'0 0.0
2018-Feb-16 00:59N 51°11' E 003°48'0 0.1
2018-Feb-16 00:30N 51°11' E 003°48'2 3.6
2018-Feb-16 00:00N 51°12' E 003°48'3 5.4
2018-Feb-15 23:30N 51°15' E 003°49'3 6.4
2018-Feb-15 23:00N 51°18' E 003°50'2 4.2
2018-Feb-15 22:30N 51°20' E 003°49'0 0.4
2018-Feb-15 22:00N 51°20' E 003°49'0 0.7
2018-Feb-15 21:30N 51°21' E 003°49'3 6.8
2018-Feb-15 21:01N 51°22' E 003°44'9 8.7
2018-Feb-15 19:55N 51°25' E 003°29'3 6.6
2018-Feb-15 19:30N 51°25' E 003°25'3 6.2
2018-Feb-15 19:01N 51°24' E 003°20'4 7.4
2018-Feb-15 18:31N 51°25' E 003°14'5 9.6
2018-Feb-15 17:59N 51°24' E 003°06'5 9.5
2018-Feb-15 17:30N 51°23' E 002°59'5 9.3
2018-Feb-15 17:00N 51°22' E 002°52'6 9.3
2018-Feb-15 16:18N 51°22' E 002°42'3 8.0
2018-Feb-15 15:59N 51°22' E 002°37'1 1.9
2018-Feb-15 15:30N 51°22' E 002°36'2 3.9
2018-Feb-15 15:00N 51°22' E 002°33'2 4.2
2018-Feb-15 14:29N 51°21' E 002°30'2 4.9
2018-Feb-15 14:00N 51°21' E 002°26'3 6.6
2018-Feb-15 13:30N 51°19' E 002°21'612.0
2018-Feb-15 13:00N 51°16' E 002°14'612.2
2018-Feb-15 12:30N 51°12' E 002°06'612.5
2018-Feb-15 12:00N 51°10' E 001°56'612.9
2018-Feb-15 11:30N 51°06' E 001°48'714.0
2018-Feb-15 11:01N 51°01' E 001°40'814.3
2018-Feb-15 10:26N 50°55' E 001°31'8410.5
2018-Feb-15 02:26N 49°59' W 000°06'510.8
2018-Feb-15 02:00N 49°54' W 000°07'611.0
2018-Feb-15 01:30N 49°49' W 000°08'611.3
2018-Feb-15 01:00N 49°43' W 000°10'611.7
2018-Feb-15 00:30N 49°37' W 000°11'611.6
2018-Feb-15 00:00N 49°31' W 000°12'511.1
2018-Feb-14 23:30N 49°29' W 000°04'510.6
2018-Feb-14 23:00N 49°27' E 000°03'612.6
2018-Feb-14 22:30N 49°26' E 000°13'612.6
2018-Feb-14 22:00N 49°27' E 000°22'611.2
2018-Feb-14 21:30N 49°29' E 000°30'5 9.7
2018-Feb-14 21:00N 49°26' E 000°35'4 8.7
2018-Feb-14 20:30N 49°29' E 000°40'4 7.4
2018-Feb-14 20:00N 49°31' E 000°44'510.5
2018-Feb-14 19:30N 49°27' E 000°49'3 5.4
2018-Feb-14 19:01N 49°25' E 000°52'4 7.6
2018-Feb-14 18:30N 49°28' E 000°56'713.6
2018-Feb-14 18:01N 49°21' E 000°56'4 7.2
2018-Feb-14 17:31N 49°23' E 001°01'0 0.3
2018-Feb-14 16:58N 49°23' E 001°01'0 0.0
2018-Feb-14 16:31N 49°23' E 001°01'0 0.0
2018-Feb-14 15:58N 49°23' E 001°01'0 0.0
2018-Feb-14 15:28N 49°23' E 001°01'0 0.0
2018-Feb-14 15:01N 49°23' E 001°01'0 0.0
2018-Feb-14 14:28N 49°23' E 001°01'0 0.0
2018-Feb-14 13:58N 49°23' E 001°01'0 0.0
2018-Feb-14 13:30N 49°23' E 001°01'0 0.0
2018-Feb-14 12:58N 49°23' E 001°01'0 0.0
2018-Feb-14 12:27N 49°23' E 001°01'0 0.0
2018-Feb-14 12:00N 49°23' E 001°01'0 0.0
2018-Feb-14 11:28N 49°23' E 001°01'0 0.0
2018-Feb-14 11:01N 49°23' E 001°01'0 0.0
2018-Feb-14 10:31N 49°23' E 001°01'0 0.0
2018-Feb-14 09:57N 49°23' E 001°01'0 0.0
2018-Feb-14 09:27N 49°23' E 001°01'0 0.0
2018-Feb-14 08:58N 49°23' E 001°01'0 0.0
2018-Feb-14 08:31N 49°23' E 001°01'0 0.0
2018-Feb-14 08:01N 49°23' E 001°01'0 0.0
2018-Feb-14 07:31N 49°23' E 001°01'0 0.0
2018-Feb-14 06:58N 49°23' E 001°01'0 0.0
2018-Feb-14 06:27N 49°23' E 001°01'0 0.0
2018-Feb-14 05:58N 49°23' E 001°01'0 0.0
2018-Feb-14 05:28N 49°23' E 001°01'0 0.0
2018-Feb-14 04:58N 49°23' E 001°01'0 0.0
2018-Feb-14 04:31N 49°23' E 001°01'0 0.0
2018-Feb-14 04:00N 49°23' E 001°01'0 0.0
2018-Feb-14 03:31N 49°23' E 001°01'0 0.0
2018-Feb-14 03:00N 49°23' E 001°01'0 0.0
2018-Feb-14 02:30N 49°23' E 001°01'0 0.0
2018-Feb-14 02:00N 49°23' E 001°01'0 0.0
2018-Feb-14 01:31N 49°23' E 001°01'0 0.0
2018-Feb-14 01:00N 49°23' E 001°01'0 0.0
2018-Feb-14 00:30N 49°23' E 001°01'0 0.0
2018-Feb-14 00:00N 49°23' E 001°01'0 0.0
2018-Feb-13 23:31N 49°23' E 001°01'0 0.0
2018-Feb-13 23:00N 49°23' E 001°01'0 0.0
2018-Feb-13 22:30N 49°23' E 001°01'0 0.0
2018-Feb-13 22:00N 49°23' E 001°01'0 0.0
2018-Feb-13 21:30N 49°23' E 001°01'0 0.0
2018-Feb-13 21:01N 49°23' E 001°01'0 0.0
2018-Feb-13 20:30N 49°23' E 001°01'0 0.0
2018-Feb-13 20:00N 49°23' E 001°01'0 0.0
2018-Feb-13 19:30N 49°23' E 001°01'0 0.0
2018-Feb-13 19:01N 49°23' E 001°01'0 0.0
2018-Feb-13 18:30N 49°23' E 001°01'0 0.0
2018-Feb-13 18:00N 49°23' E 001°01'0 0.0
2018-Feb-13 17:30N 49°23' E 001°01'0 0.0
2018-Feb-13 17:01N 49°23' E 001°01'0 0.0
2018-Feb-13 16:30N 49°23' E 001°01'0 0.0
2018-Feb-13 16:00N 49°23' E 001°01'0 0.0
2018-Feb-13 15:30N 49°23' E 001°01'0 0.0
2018-Feb-13 15:00N 49°23' E 001°01'0 0.0
2018-Feb-13 14:30N 49°23' E 001°01'0 0.0
2018-Feb-13 14:00N 49°23' E 001°01'0 0.0
2018-Feb-13 13:30N 49°23' E 001°01'0 0.0
2018-Feb-13 13:00N 49°23' E 001°01'0 0.0
2018-Feb-13 12:31N 49°23' E 001°01'0 0.0
2018-Feb-13 12:01N 49°23' E 001°01'0 0.9
2018-Feb-13 11:31N 49°23' E 001°01'2 3.5
2018-Feb-13 11:00N 49°21' E 000°59'3 6.7
2018-Feb-13 10:30N 49°24' E 000°55'510.4
2018-Feb-13 10:01N 49°29' E 000°55'4 7.8
2018-Feb-13 09:30N 49°26' E 000°52'2 4.6
2018-Feb-13 09:00N 49°26' E 000°48'5 9.7
2018-Feb-13 08:30N 49°30' E 000°46'4 8.1
2018-Feb-13 08:01N 49°30' E 000°40'510.3
2018-Feb-13 07:31N 49°26' E 000°35'5 9.8
2018-Feb-13 07:01N 49°28' E 000°28'713.2
2018-Feb-13 06:31N 49°26' E 000°19'612.8
2018-Feb-13 06:00N 49°26' E 000°09'611.5
2018-Feb-13 05:30N 49°28' E 000°00'5 9.6
2018-Feb-13 05:00N 49°30' W 000°07'4 8.9
2018-Feb-13 04:30N 49°33' W 000°11'5 9.3
2018-Feb-13 04:01N 49°38' W 000°11'5 9.3
2018-Feb-13 03:31N 49°42' W 000°10'5 9.1
2018-Feb-13 03:01N 49°47' W 000°10'4 8.8
2018-Feb-13 02:30N 49°51' W 000°09'4 7.8
2018-Feb-13 02:00N 49°55' W 000°11'4 8.6
2018-Feb-13 01:30N 49°59' W 000°11'4 8.4
2018-Feb-13 01:00N 50°04' W 000°11'16 8.3
2018-Feb-12 23:04N 50°19' W 000°06'1 8.5
2018-Feb-12 22:59N 50°20' W 000°06'4 8.5
2018-Feb-12 22:30N 50°24' W 000°06'4 7.7
2018-Feb-12 21:58N 50°27' W 000°02'59 8.7
2018-Feb-12 15:11N 50°56' E 001°20'310.4
2018-Feb-12 14:53N 50°58' E 001°23'410.3
2018-Feb-12 14:29N 51°01' E 001°27'4 8.9
2018-Feb-12 13:59N 51°04' E 001°32'5 9.3
2018-Feb-12 13:30N 51°07' E 001°37'  

Dump ship's entire track history